Time;durP1;ratioP1;P1;durP2;ratioP2;P2;SDS_P1;SDS_P2;PMS_P1;PMS_P2;Temp;Humidity;BMP_temperature;BMP_pressure;BME280_temperature;BME280_humidity;BME280_pressure;Samples;Min_cycle;Max_cycle;Signal;HPM_P1;HPM_P2
2022/06/03 00:00:22;;;;;;;6.78;4.70;;;;;;;24.95;53.55;100834.06;1759633;80;21002;-79
2022/06/03 00:03:11;;;;;;;5.58;4.78;;;;;;;24.97;53.55;100839.30;1738605;81;21118;-79
2022/06/03 00:06:13;;;;;;;6.62;4.28;;;;;;;24.96;53.56;100832.09;1754116;80;21067;-79
2022/06/03 00:09:03;;;;;;;5.28;4.58;;;;;;;24.97;53.57;100839.30;1752532;81;21084;-79
2022/06/03 00:12:17;;;;;;;5.55;4.35;;;;;;;24.96;53.56;100841.83;1763405;80;21022;-78
2022/06/03 00:15:01;;;;;;;6.22;4.45;;;;;;;24.97;53.56;100847.64;1740605;82;21074;-79
2022/06/03 00:17:35;;;;;;;6.12;4.78;;;;;;;24.96;53.58;100845.44;1740222;82;21093;-79
2022/06/03 00:20:31;;;;;;;6.35;4.45;;;;;;;24.96;53.58;100844.62;1740745;82;20981;-79
2022/06/03 00:23:12;;;;;;;7.17;4.70;;;;;;;24.96;53.59;100850.19;1740514;82;21026;-79
2022/06/03 00:26:11;;;;;;;5.78;4.67;;;;;;;24.96;53.59;100848.80;1740085;82;21046;-79
2022/06/03 00:29:06;;;;;;;5.42;4.50;;;;;;;24.97;53.59;100850.42;1740607;82;21061;-79
2022/06/03 00:32:12;;;;;;;5.95;4.75;;;;;;;24.97;53.59;100849.85;1740574;82;21135;-79
2022/06/03 00:35:05;;;;;;;5.70;4.92;;;;;;;24.97;53.61;100854.60;1739846;82;21062;-79
2022/06/03 00:37:56;;;;;;;6.30;4.78;;;;;;;24.96;53.59;100863.53;1740572;82;21093;-79
2022/06/03 00:40:54;;;;;;;6.90;5.17;;;;;;;24.96;53.59;100873.27;1747345;81;21050;-79
2022/06/03 00:43:28;;;;;;;7.03;4.50;;;;;;;24.96;53.62;100878.84;1771264;80;21124;-78
2022/06/03 00:46:23;;;;;;;6.08;4.55;;;;;;;24.97;53.59;100882.44;1765110;80;21068;-78
2022/06/03 00:49:40;;;;;;;5.37;4.30;;;;;;;24.96;53.61;100884.41;1759404;81;21402;-78
2022/06/03 00:52:43;;;;;;;6.58;4.50;;;;;;;24.97;53.61;100883.83;1759089;80;21040;-78
2022/06/03 00:55:50;;;;;;;5.97;4.50;;;;;;;24.95;53.62;100879.98;1759549;81;20985;-79
2022/06/03 00:58:28;;;;;;;6.10;4.67;;;;;;;24.96;53.60;100883.58;1770720;80;21308;-78
2022/06/03 01:01:25;;;;;;;7.47;4.83;;;;;;;24.95;53.60;100879.20;1776183;80;21086;-78
2022/06/03 01:04:29;;;;;;;4.97;4.42;;;;;;;24.95;53.63;100881.37;1775697;80;21041;-78
2022/06/03 01:07:27;;;;;;;5.78;4.95;;;;;;;24.94;53.63;100878.38;1776286;80;21147;-78
2022/06/03 01:10:28;;;;;;;5.75;4.78;;;;;;;24.95;53.64;100877.81;1702680;84;21017;-78
2022/06/03 01:13:14;;;;;;;6.22;4.65;;;;;;;24.94;53.63;100874.78;1678973;83;21088;-78
2022/06/03 01:16:25;;;;;;;5.55;4.83;;;;;;;24.94;53.64;100881.74;1686570;84;21097;-78
2022/06/03 01:19:44;;;;;;;5.87;5.00;;;;;;;24.94;53.64;100875.60;1736785;81;21054;-78
2022/06/03 01:22:25;;;;;;;6.45;4.80;;;;;;;24.94;53.63;100877.57;1739267;81;21087;-78
2022/06/03 01:24:59;;;;;;;;;;;;;;;24.93;53.64;100879.53;1737125;81;21640;-78
2022/06/03 01:28:09;;;;;;;7.35;4.53;;;;;;;24.92;53.68;100877.09;1729250;81;20179;-78
2022/06/03 01:31:33;;;;;;;6.10;4.12;;;;;;;24.93;53.66;100871.76;1729534;81;21489;-78
2022/06/03 01:34:21;;;;;;;5.75;4.35;;;;;;;24.92;53.65;100871.52;1729245;81;21462;-78
2022/06/03 01:37:25;;;;;;;6.05;4.70;;;;;;;24.90;53.65;100873.27;1729508;81;21127;-78
2022/06/03 01:40:16;;;;;;;5.75;4.58;;;;;;;24.91;53.66;100880.44;1729252;81;21044;-78
2022/06/03 01:43:06;;;;;;;5.60;4.85;;;;;;;24.91;53.66;100871.28;1729528;81;21091;-78
2022/06/03 01:46:28;;;;;;;6.10;4.92;;;;;;;24.92;53.68;100874.30;1729121;81;21628;-78
2022/06/03 01:49:03;;;;;;;7.47;4.92;;;;;;;24.92;53.68;100882.08;1729603;81;21033;-78
2022/06/03 01:52:01;;;;;;;6.15;4.97;;;;;;;24.91;53.67;100883.23;1729579;81;21361;-78
2022/06/03 01:55:12;;;;;;;6.28;4.30;;;;;;;24.92;53.71;100886.83;1704101;83;21113;-78
2022/06/03 01:57:59;;;;;;;7.50;4.78;;;;;;;24.92;53.69;100889.61;1727964;81;21616;-78
2022/06/03 02:00:34;;;;;;;6.62;4.90;;;;;;;24.91;53.68;100894.36;1725861;81;21112;-78
2022/06/03 02:03:18;;;;;;;6.20;4.78;;;;;;;24.92;53.71;100900.17;1740854;81;21112;-78
2022/06/03 02:06:05;;;;;;;5.70;4.90;;;;;;;24.93;53.71;100903.77;1707628;82;21492;-78
2022/06/03 02:09:17;;;;;;;5.50;4.62;;;;;;;24.92;53.71;100901.56;1781989;80;21057;-78
2022/06/03 02:12:15;;;;;;;5.53;4.50;;;;;;;24.93;53.71;100907.94;1712909;80;21045;-78
2022/06/03 02:15:04;;;;;;;6.78;4.78;;;;;;;24.92;53.68;100907.70;1745897;82;21221;-78
2022/06/03 02:18:04;;;;;;;5.42;4.72;;;;;;;24.93;53.70;100917.69;1746903;81;21048;-78
2022/06/03 02:20:58;;;;;;;6.00;4.87;;;;;;;24.92;53.68;100914.08;1747156;82;21135;-78
2022/06/03 02:24:06;;;;;;;6.95;4.85;;;;;;;24.92;53.68;100914.08;1694667;83;21478;-78
2022/06/03 02:26:57;;;;;;;5.17;4.40;;;;;;;24.93;53.68;100907.94;1694667;83;21057;-79
2022/06/03 02:33:06;;;;;;;6.87;4.40;;;;;;;24.92;53.67;100914.66;1759519;80;21099;-78
2022/06/03 02:36:19;;;;;;;5.67;4.33;;;;;;;24.91;53.65;100918.59;1728648;81;21107;-78
2022/06/03 02:39:08;;;;;;;6.10;4.53;;;;;;;24.91;53.65;100925.55;1770409;79;21008;-79
2022/06/03 02:42:30;;;;;;;6.33;4.80;;;;;;;24.91;53.62;100936.69;1751425;80;21048;-78
2022/06/03 02:45:21;;;;;;;5.75;4.50;;;;;;;24.91;53.62;100938.08;1782656;80;21057;-79
2022/06/03 02:48:38;;;;;;;5.53;4.08;;;;;;;24.90;53.59;100949.00;1769170;80;21041;-78
2022/06/03 02:51:33;;;;;;;5.15;4.37;;;;;;;24.91;53.59;100949.20;1747330;82;21024;-79
2022/06/03 02:54:23;;;;;;;5.40;4.10;;;;;;;24.90;53.58;100944.25;1778549;80;21068;-78
2022/06/03 02:57:00;;;;;;;5.28;4.25;;;;;;;24.90;53.55;100944.82;1771465;80;21025;-78
2022/06/03 02:59:44;;;;;;;5.15;4.65;;;;;;;24.90;53.56;100956.77;1764155;80;21186;-78
2022/06/03 03:02:35;;;;;;;6.92;4.25;;;;;;;24.91;53.58;100953.38;1761243;81;21078;-78
2022/06/03 03:05:28;;;;;;;5.08;3.90;;;;;;;24.91;53.59;100959.77;1761564;80;21086;-78
2022/06/03 03:08:09;;;;;;;7.12;4.28;;;;;;;24.91;53.55;100974.26;1723983;81;21084;-79
2022/06/03 03:10:57;;;;;;;5.17;3.92;;;;;;;24.91;53.54;100971.47;1724437;81;21039;-78
2022/06/03 03:14:01;;;;;;;5.20;3.75;;;;;;;24.92;53.53;100975.31;1754483;81;21167;-78
2022/06/03 03:16:48;;;;;;;5.03;4.05;;;;;;;24.92;53.53;100974.50;1719433;82;21080;-78
2022/06/03 03:19:39;;;;;;;5.12;4.10;;;;;;;24.92;53.49;100980.06;1715180;83;20929;-78
2022/06/03 03:22:40;;;;;;;5.70;4.10;;;;;;;24.91;53.49;100979.25;1720274;82;21047;-78
2022/06/03 03:25:35;;;;;;;;;;;;;;;24.92;53.48;100991.20;1722206;82;21024;-78
2022/06/03 03:28:32;;;;;;;4.40;3.95;;;;;;;24.91;53.47;100989.56;1732764;82;20613;-78
2022/06/03 03:31:16;;;;;;;5.50;4.40;;;;;;;24.90;53.47;100999.91;1734827;81;21099;-78
2022/06/03 03:34:13;;;;;;;6.30;4.28;;;;;;;24.90;53.46;101006.05;1735122;81;21025;-79
2022/06/03 03:37:17;;;;;;;4.50;3.77;;;;;;;24.90;53.47;101000.48;1734386;80;21002;-78
2022/06/03 03:40:26;;;;;;;5.25;4.20;;;;;;;24.90;53.45;101005.48;1734739;82;21479;-78
2022/06/03 03:43:39;;;;;;;4.78;3.58;;;;;;;24.90;53.44;101000.48;1733756;82;21126;-78
2022/06/03 03:46:37;;;;;;;5.40;4.20;;;;;;;24.89;53.43;101006.63;1734991;81;21087;-78
2022/06/03 03:50:01;;;;;;;5.22;3.87;;;;;;;24.90;53.41;101018.58;1744660;80;21582;-78
2022/06/03 03:52:59;;;;;;;5.72;4.05;;;;;;;24.91;53.40;101025.75;1744589;80;21406;-78
2022/06/03 03:55:59;;;;;;;7.12;4.10;;;;;;;24.90;53.40;101029.70;1734614;81;21059;-78
2022/06/03 03:59:10;;;;;;;4.85;3.20;;;;;;;24.87;53.38;101026.20;1739685;80;21168;-78
2022/06/03 04:02:11;;;;;;;4.70;4.12;;;;;;;24.83;53.24;101031.60;1774409;80;21029;-78
2022/06/03 04:05:20;;;;;;;9.30;3.42;;;;;;;24.77;53.19;101035.77;1776076;80;21045;-78
2022/06/03 04:08:20;;;;;;;6.78;3.62;;;;;;;24.77;53.21;101039.12;1776062;80;20986;-78
2022/06/03 04:11:19;;;;;;;5.97;3.53;;;;;;;24.76;53.12;101044.44;1741008;82;21048;-78
2022/06/03 04:14:00;;;;;;;4.20;3.42;;;;;;;24.75;53.10;101047.80;1748586;80;21287;-78
2022/06/03 04:17:04;;;;;;;5.78;3.67;;;;;;;24.73;52.98;101057.66;1753590;80;21025;-78
2022/06/03 04:20:20;;;;;;;4.62;3.27;;;;;;;24.73;52.91;101054.87;1746555;80;21037;-78
2022/06/03 04:23:09;;;;;;;5.55;3.40;;;;;;;24.70;52.79;101059.70;1743302;82;21558;-78
2022/06/03 04:26:24;;;;;;;4.53;3.25;;;;;;;24.67;52.59;101063.98;1714352;82;21035;-78
2022/06/03 04:29:46;;;;;;;4.75;3.10;;;;;;;24.65;52.50;101064.92;1738861;80;21178;-78
2022/06/03 04:32:58;;;;;;;4.92;3.05;;;;;;;24.64;52.38;101065.25;1730365;80;21030;-77
2022/06/03 04:36:09;;;;;;;7.95;2.92;;;;;;;24.61;52.14;101070.11;1717531;81;21485;-82
2022/06/03 04:39:01;;;;;;;6.08;2.98;;;;;;;24.56;52.04;101085.84;1736479;80;21667;-76
2022/06/03 04:41:51;;;;;;;7.17;2.98;;;;;;;24.54;51.91;101085.35;1716910;82;21550;-84
2022/06/03 04:44:51;;;;;;;4.35;2.45;;;;;;;24.54;51.81;101090.09;1736145;80;21542;-80
2022/06/03 04:48:03;;;;;;;8.98;3.30;;;;;;;24.52;51.72;101097.41;1731835;80;21135;-79
2022/06/03 04:51:02;;;;;;;7.67;3.00;;;;;;;24.51;51.63;101117.20;1751356;80;21203;-80
2022/06/03 04:54:18;;;;;;;11.05;3.08;;;;;;;24.50;51.51;101114.18;1746048;80;21059;-80
2022/06/03 04:57:28;;;;;;;10.03;2.90;;;;;;;24.49;51.40;101113.36;1733379;80;21027;-82
2022/06/03 05:00:26;;;;;;;7.97;2.52;;;;;;;24.50;51.33;101106.66;1677289;83;21539;-83
2022/06/03 05:03:36;;;;;;;4.85;3.17;;;;;;;24.50;51.19;101102.48;1768745;79;21084;-80
2022/06/03 05:06:51;;;;;;;10.35;2.80;;;;;;;24.51;51.07;101096.34;1774733;80;21484;-79
2022/06/03 05:09:59;;;;;;;8.08;3.02;;;;;;;24.52;51.04;101100.19;1753237;79;21043;-80
2022/06/03 05:12:58;;;;;;;8.85;2.85;;;;;;;24.53;51.07;101103.19;1793250;78;21512;-79
2022/06/03 05:16:16;;;;;;;9.58;3.20;;;;;;;24.55;50.98;101119.55;1770718;78;21842;-80
2022/06/03 05:18:44;;;;;;;8.95;2.83;;;;;;;24.55;50.96;101116.20;1706731;79;21101;-78
2022/06/03 05:21:37;;;;;;;11.57;3.10;;;;;;;24.55;50.84;101116.77;1788682;78;21095;-79
2022/06/03 05:24:35;;;;;;;4.67;3.02;;;;;;;24.54;50.81;101117.34;1779710;78;21134;-78
2022/06/03 05:27:43;;;;;;;4.47;2.85;;;;;;;24.56;50.82;101110.88;1775573;79;21049;-78
2022/06/03 05:30:55;;;;;;;4.47;2.70;;;;;;;24.58;50.80;101121.08;1775764;78;21913;-77
2022/06/03 05:33:35;;;;;;;6.97;2.80;;;;;;;24.60;50.76;101116.58;1777293;78;21070;-79
2022/06/03 05:36:19;;;;;;;5.60;2.70;;;;;;;24.62;50.73;101107.87;1772521;78;21028;-79
2022/06/03 05:38:57;;;;;;;3.67;2.60;;;;;;;24.64;50.71;101119.50;1762707;78;21669;-81
2022/06/03 05:44:54;;;;;;;8.88;2.80;;;;;;;24.66;50.67;101133.30;1767517;78;21312;-80
2022/06/03 05:47:42;;;;;;;;;;;;;;;24.67;50.63;101121.59;1784818;79;21579;-81
2022/06/03 05:50:20;;;;;;;9.00;3.02;;;;;;;24.69;50.55;101125.69;1762342;79;20407;-81
2022/06/03 05:53:20;;;;;;;64.17;4.83;;;;;;;24.68;50.52;101124.63;1768122;79;21068;-84
2022/06/03 05:56:24;;;;;;;28.38;4.45;;;;;;;24.67;50.49;101121.02;1730552;82;21010;-85
2022/06/03 05:59:25;;;;;;;25.00;3.60;;;;;;;24.67;50.46;101129.94;1748013;80;21149;-87
2022/06/03 06:02:09;;;;;;;31.35;4.22;;;;;;;24.68;50.42;101144.10;1713311;82;21042;-89
2022/06/03 06:04:59;;;;;;;24.23;3.85;;;;;;;24.68;50.58;101131.01;1771279;79;21511;-84
2022/06/03 06:07:57;;;;;;;23.38;3.87;;;;;;;24.72;50.67;101133.35;1767075;79;21634;-83
2022/06/03 06:10:44;;;;;;;16.25;3.77;;;;;;;24.76;50.70;101133.48;1758216;79;21073;-81
2022/06/03 06:16:11;;;;;;;10.00;3.58;;;;;;;24.85;50.81;101133.70;1854433;75;22185;-81
2022/06/03 06:19:04;;;;;;;7.75;3.52;;;;;;;24.83;50.74;101140.71;1816999;77;21107;-83
2022/06/03 06:22:09;;;;;;;7.00;3.10;;;;;;;24.83;50.58;101133.75;1768415;80;21736;-82
2022/06/03 06:25:13;;;;;;;5.17;3.22;;;;;;;24.82;50.41;101142.70;1735406;80;21067;-80
2022/06/03 06:28:04;;;;;;;5.80;3.25;;;;;;;24.80;50.41;101140.83;1741595;81;21036;-85
2022/06/03 06:30:58;;;;;;;;;;;;;;;24.80;50.27;101142.78;1813253;78;21056;-87
2022/06/03 06:33:48;;;;;;;5.85;3.10;;;;;;;24.78;50.22;101150.67;1814130;78;20144;-83
2022/06/03 06:36:42;;;;;;;7.12;3.02;;;;;;;24.76;50.24;101150.18;1767193;78;21661;-84
2022/06/03 06:39:49;;;;;;;6.85;3.40;;;;;;;24.76;50.21;101137.66;1780572;78;21693;-82
2022/06/03 06:42:30;;;;;;;6.03;3.00;;;;;;;24.77;50.18;101137.91;1746849;79;21143;-84
2022/06/03 06:45:12;;;;;;;;;;;;;;;24.79;50.16;101139.76;1798265;78;21540;-83
2022/06/03 06:48:03;;;;;;;6.17;3.30;;;;;;;24.80;50.05;101142.22;1788170;78;20191;-82
2022/06/03 06:50:50;;;;;;;10.88;3.10;;;;;;;24.80;50.09;101150.56;1654231;85;21149;-80
2022/06/03 06:53:33;;;;;;;13.83;3.47;;;;;;;24.80;50.03;101149.17;1726124;81;21038;-82
2022/06/03 06:56:29;;;;;;;17.57;3.77;;;;;;;24.82;50.00;101142.70;1710396;82;21375;-81
2022/06/03 06:59:00;;;;;;;14.85;3.70;;;;;;;24.87;49.97;101157.00;1726325;82;21055;-81
2022/06/03 07:01:50;;;;;;;;;;;;;;;24.90;49.95;101150.20;1799424;78;21109;-78
2022/06/03 07:04:27;;;;;;;9.63;3.08;;;;;;;24.90;49.79;101151.59;1800435;78;21186;-82
2022/06/03 07:07:15;;;;;;;10.53;3.47;;;;;;;24.87;49.83;101148.65;1801364;78;21463;-84
2022/06/03 07:10:15;;;;;;;10.08;3.40;;;;;;;24.85;49.74;101147.62;1795886;79;21020;-83
2022/06/03 07:12:53;;;;;;;12.65;3.47;;;;;;;24.86;49.65;101155.39;1788593;79;21535;-87
2022/06/03 07:15:44;;;;;;;8.78;3.98;;;;;;;24.85;49.70;101157.90;1800657;78;21049;-84
2022/06/03 07:21:41;;;;;;;10.85;3.27;;;;;;;24.86;49.73;101160.39;1802761;78;21915;-83
2022/06/03 07:24:19;;;;;;;7.50;3.60;;;;;;;24.89;49.78;101161.66;1750901;81;21130;-81
2022/06/03 07:26:49;;;;;;;8.63;3.47;;;;;;;24.91;49.78;101164.91;1729150;81;21004;-84
2022/06/03 07:29:42;;;;;;;6.42;3.45;;;;;;;24.91;49.78;101169.91;1736921;82;21166;-83
2022/06/03 07:32:17;;;;;;;6.47;3.27;;;;;;;24.93;49.80;101164.01;1716835;82;21143;-83
2022/06/03 07:34:49;;;;;;;6.37;3.10;;;;;;;24.94;49.76;101172.03;1732421;81;21586;-80
2022/06/03 07:37:25;;;;;;;7.72;3.15;;;;;;;24.94;49.68;101171.22;1739293;81;21035;-82
2022/06/03 07:40:19;;;;;;;6.30;3.02;;;;;;;24.95;49.61;101175.64;1732923;81;21099;-84
2022/06/03 07:42:53;;;;;;;6.33;3.20;;;;;;;24.95;49.58;101179.81;1751239;80;21544;-79
2022/06/03 07:45:36;;;;;;;9.60;3.52;;;;;;;24.95;49.56;101168.67;1739204;80;21097;-84
2022/06/03 07:48:19;;;;;;;8.68;3.33;;;;;;;24.96;49.58;101175.84;1749531;80;21504;-88
2022/06/03 07:50:59;;;;;;;7.03;3.65;;;;;;;24.96;49.61;101180.84;1733537;81;21055;-87
2022/06/03 07:53:50;;;;;;;8.60;3.08;;;;;;;24.98;49.62;101184.12;1716374;81;21104;-84
2022/06/03 07:56:21;;;;;;;7.03;3.35;;;;;;;25.00;49.62;101192.93;1747352;80;21135;-85
2022/06/03 07:58:51;;;;;;;16.48;3.87;;;;;;;25.03;49.67;101190.64;1717149;81;21174;-82
2022/06/03 08:01:27;;;;;;;6.75;3.58;;;;;;;25.07;49.66;101187.41;1745069;81;20949;-78
2022/06/03 08:03:54;;;;;;;14.03;3.77;;;;;;;25.08;49.64;101187.05;1726874;81;21327;-84
2022/06/03 08:12:10;;;;;;;8.68;3.40;;;;;;;25.12;49.61;101194.18;1742010;81;21054;-79
2022/06/03 08:14:37;;;;;;;8.58;3.10;;;;;;;25.12;49.61;101185.83;1724961;82;21116;-86
2022/06/03 08:17:05;;;;;;;11.20;3.47;;;;;;;25.12;49.47;101194.97;1750103;80;21468;-79
2022/06/03 08:19:32;;;;;;;5.72;3.10;;;;;;;25.12;49.39;101184.44;1756716;80;21086;-82
2022/06/03 08:22:12;;;;;;;10.65;2.87;;;;;;;25.14;49.31;101187.67;1790807;79;21654;-83
2022/06/03 08:24:47;;;;;;;9.18;2.87;;;;;;;25.13;49.20;101192.43;1772772;79;21127;-84
2022/06/03 08:27:20;;;;;;;8.93;3.37;;;;;;;25.14;49.24;101187.67;1798344;79;21071;-80
2022/06/03 08:29:49;;;;;;;6.08;3.12;;;;;;;25.14;49.20;101191.86;1786113;79;21136;-85
2022/06/03 08:32:49;;;;;;;5.30;2.93;;;;;;;25.15;49.06;101187.35;1772392;79;21060;-84
2022/06/03 08:35:23;;;;;;;8.10;3.33;;;;;;;25.15;48.95;101191.53;1803348;78;21558;-79
2022/06/03 08:38:05;;;;;;;4.62;3.22;;;;;;;25.16;48.94;101182.02;1793049;78;21854;-82
2022/06/03 08:40:52;;;;;;;8.43;3.25;;;;;;;25.17;48.86;101178.64;1797625;79;21032;-80
2022/06/03 08:43:24;;;;;;;11.25;3.70;;;;;;;25.16;48.82;101186.20;1799232;78;21083;-80
2022/06/03 08:46:14;;;;;;;11.73;3.55;;;;;;;25.16;48.94;101183.42;1780507;78;21118;-79
2022/06/03 08:48:45;;;;;;;8.75;3.33;;;;;;;25.19;49.02;101174.95;1759983;79;21032;-79
2022/06/03 08:51:13;;;;;;;;;;;;;;;25.21;48.97;101176.23;1793896;78;21343;-78
2022/06/03 08:54:06;;;;;;;10.38;3.50;;;;;;;25.20;49.07;101180.19;1788045;79;20340;-78
2022/06/03 08:56:35;;;;;;;7.20;3.12;;;;;;;25.23;49.14;101183.67;1800678;78;21052;-80
2022/06/03 08:59:13;;;;;;;9.80;3.60;;;;;;;25.26;49.00;101181.59;1783488;79;21857;-82
2022/06/03 09:01:51;;;;;;;8.65;3.12;;;;;;;25.28;49.00;101175.70;1786021;78;21030;-80
2022/06/03 09:04:25;;;;;;;8.23;3.55;;;;;;;25.29;49.06;101172.55;1791621;78;21165;-79
2022/06/03 09:07:00;;;;;;;5.05;3.08;;;;;;;25.31;49.10;101180.00;1791240;79;21018;-77
2022/06/03 09:09:41;;;;;;;4.90;3.42;;;;;;;25.33;49.12;101175.50;1768332;80;21234;-79
2022/06/03 09:12:34;;;;;;;7.75;3.30;;;;;;;25.34;48.78;101182.09;1752278;80;21040;-78
2022/06/03 09:15:05;;;;;;;4.97;3.42;;;;;;;25.34;48.78;101182.09;1760542;80;21115;-79
2022/06/03 09:17:42;;;;;;;6.87;3.45;;;;;;;25.34;48.95;101180.70;1741189;80;22749;-80
2022/06/03 09:20:28;;;;;;;4.92;2.87;;;;;;;25.34;48.98;101174.31;1727547;81;21062;-80
2022/06/03 09:23:04;;;;;;;4.87;2.83;;;;;;;25.33;48.97;101172.11;1763516;80;21128;-79
2022/06/03 09:25:33;;;;;;;8.48;3.08;;;;;;;25.32;48.97;101178.86;1740743;80;21125;-78
2022/06/03 09:28:08;;;;;;;6.15;3.00;;;;;;;25.33;48.98;101176.89;1772916;80;21082;-80
2022/06/03 09:30:38;;;;;;;7.47;3.15;;;;;;;25.32;48.84;101180.25;1786424;80;21175;-80
2022/06/03 09:33:07;;;;;;;4.42;3.10;;;;;;;25.32;48.82;101180.25;1784184;80;20991;-80
2022/06/03 09:35:36;;;;;;;7.78;3.15;;;;;;;25.32;48.79;101166.32;1759307;80;21152;-81
2022/06/03 09:38:02;;;;;;;7.50;3.00;;;;;;;25.32;48.72;101157.15;1737045;81;21048;-80
2022/06/03 09:40:35;;;;;;;4.30;3.30;;;;;;;25.32;48.66;101161.33;1743704;81;21551;-81
2022/06/03 09:43:23;;;;;;;4.20;2.87;;;;;;;25.33;48.65;101169.92;1709561;81;21097;-80
2022/06/03 09:45:51;;;;;;;3.80;3.02;;;;;;;25.33;48.67;101155.39;1725428;81;21028;-80
2022/06/03 09:48:20;;;;;;;6.50;3.10;;;;;;;25.32;48.65;101164.93;1756753;80;21042;-80
2022/06/03 09:50:49;;;;;;;5.30;3.30;;;;;;;25.33;48.64;101158.78;1742862;81;21070;-80
2022/06/03 09:53:21;;;;;;;4.58;3.20;;;;;;;25.32;48.64;101162.14;1770352;80;21070;-83
2022/06/03 09:56:01;;;;;;;9.35;3.47;;;;;;;25.36;48.71;101167.84;1772797;80;21120;-82
2022/06/03 09:58:32;;;;;;;7.97;2.85;;;;;;;25.41;48.80;101168.45;1711492;82;21667;-84
2022/06/03 10:01:00;;;;;;;7.85;2.80;;;;;;;25.46;48.76;101167.44;1762669;79;21172;-83
2022/06/03 10:03:28;;;;;;;8.78;2.98;;;;;;;25.48;48.68;101164.53;1681271;83;21039;-82
2022/06/03 10:05:57;;;;;;;12.05;3.37;;;;;;;25.50;48.65;101165.59;1697082;83;21110;-78
2022/06/03 10:12:48;;;;;;;9.85;3.45;;;;;;;25.52;48.67;101162.45;1672507;84;22096;-80
2022/06/03 10:13:44;;;;;;;6.58;3.00;;;;;;;25.55;48.80;101163.99;1665806;84;21660;-79
2022/06/03 10:16:12;;;;;;;12.75;2.90;;;;;;;25.56;48.78;101160.06;1666424;84;21066;-80
2022/06/03 10:18:46;;;;;;;;;;;;;;;25.56;48.84;101158.66;1662796;84;21175;-79
2022/06/03 10:21:18;;;;;;;4.60;2.75;;;;;;;25.56;48.74;101155.87;1706347;82;21220;-79
2022/06/03 10:23:55;;;;;;;6.80;2.90;;;;;;;25.55;48.75;101150.64;1727788;80;21087;-80
2022/06/03 10:26:35;;;;;;;6.17;2.85;;;;;;;25.56;48.67;101152.27;1736592;81;21107;-81
2022/06/03 10:29:16;;;;;;;9.60;3.22;;;;;;;25.55;48.62;101147.27;1723122;81;21178;-79
2022/06/03 10:31:51;;;;;;;7.30;2.92;;;;;;;25.56;48.62;101155.87;1696258;83;21185;-79
2022/06/03 10:34:22;;;;;;;6.12;2.80;;;;;;;25.56;48.63;101158.66;1669461;83;21365;-80
2022/06/03 10:36:54;;;;;;;8.13;3.08;;;;;;;25.57;48.59;101156.70;1674548;83;21071;-81
2022/06/03 10:39:27;;;;;;;5.78;3.05;;;;;;;25.57;48.61;101146.37;1727922;81;21505;-80
2022/06/03 10:41:52;;;;;;;3.75;2.80;;;;;;;25.59;48.64;101144.03;1708057;81;21004;-79
2022/06/03 10:44:23;;;;;;;6.60;2.77;;;;;;;25.60;48.68;101140.67;1699191;82;21168;-81
2022/06/03 10:47:23;;;;;;;7.60;3.60;;;;;;;25.60;48.69;101144.28;1729857;80;21059;-80
2022/06/03 10:49:53;;;;;;;;;;;;;;;25.61;48.68;101140.92;1714217;81;21166;-80
2022/06/03 11:01:21;;;;;;;14.68;3.40;;;;;;;25.64;48.79;101152.77;1724193;81;21145;-80
2022/06/03 11:03:50;;;;;;;17.05;4.40;;;;;;;25.66;48.79;101156.03;1708615;82;21056;-82
2022/06/03 11:06:36;;;;;;;12.80;4.40;;;;;;;25.67;48.85;101157.67;1678646;84;21035;-81
2022/06/03 11:09:06;;;;;;;9.70;4.58;;;;;;;25.69;48.94;101159.52;1676769;84;21106;-81
2022/06/03 11:11:48;;;;;;;9.73;4.20;;;;;;;25.71;48.94;101165.58;1716149;82;21567;-81
2022/06/03 11:14:39;;;;;;;9.40;3.83;;;;;;;25.71;48.89;101162.22;1697189;83;22301;-82
2022/06/03 11:17:19;;;;;;;6.05;2.80;;;;;;;25.70;48.87;101168.13;1710344;83;21678;-79
2022/06/03 11:19:53;;;;;;;5.12;3.42;;;;;;;25.70;48.81;101168.13;1707226;82;21115;-83
2022/06/03 11:22:32;;;;;;;7.95;3.25;;;;;;;25.69;48.75;101158.13;1723622;82;21082;-79
2022/06/03 11:25:31;;;;;;;6.95;3.15;;;;;;;25.69;48.65;101164.52;1708642;82;21168;-82
2022/06/03 11:28:19;;;;;;;4.35;3.30;;;;;;;25.69;48.56;101164.52;1707922;82;21386;-78
2022/06/03 11:31:19;;;;;;;6.80;2.98;;;;;;;25.69;48.51;101170.09;1703776;82;21636;-81
2022/06/03 11:34:09;;;;;;;7.90;3.45;;;;;;;25.69;48.49;101161.73;1715009;82;21588;-81
2022/06/03 11:36:45;;;;;;;5.85;3.60;;;;;;;25.68;48.51;101175.42;1694605;83;21059;-81
2022/06/03 11:39:35;;;;;;;5.42;3.60;;;;;;;25.68;48.52;101171.81;1697705;83;21114;-80
2022/06/03 11:42:19;;;;;;;6.75;3.27;;;;;;;25.68;48.54;101163.45;1707037;82;21225;-82
2022/06/03 11:45:06;;;;;;;6.35;3.37;;;;;;;25.69;48.50;101169.27;1739415;82;21043;-84
2022/06/03 11:47:52;;;;;;;7.55;3.58;;;;;;;25.69;48.46;101174.84;1698937;82;21083;-83
2022/06/03 11:50:22;;;;;;;7.72;3.08;;;;;;;25.69;48.41;101172.05;1686431;83;21096;-83
2022/06/03 11:52:50;;;;;;;12.40;3.20;;;;;;;25.69;48.29;101166.48;1699889;82;21722;-86
2022/06/03 11:55:25;;;;;;;6.22;2.83;;;;;;;25.71;48.23;101173.36;1709522;82;21965;-82
2022/06/03 11:58:00;;;;;;;5.65;3.25;;;;;;;25.73;48.17;101173.81;1703728;82;21044;-84
2022/06/03 12:00:34;;;;;;;9.93;2.67;;;;;;;25.78;48.12;101170.00;1718168;82;21211;-82
2022/06/03 12:03:09;;;;;;;6.47;2.90;;;;;;;25.82;48.08;101170.94;1690742;82;21033;-82
2022/06/03 12:05:47;;;;;;;10.48;3.33;;;;;;;25.88;48.04;101168.18;1716079;82;21835;-82
2022/06/03 12:08:33;;;;;;;14.05;3.05;;;;;;;25.91;48.00;101173.05;1681828;83;22234;-83
2022/06/03 12:14:20;;;;;;;9.08;2.62;;;;;;;25.96;48.06;101168.66;1702056;82;21051;-81
2022/06/03 12:17:12;;;;;;;5.92;2.70;;;;;;;25.96;48.07;101169.23;1680673;83;21717;-81
2022/06/03 12:19:45;;;;;;;7.33;2.85;;;;;;;25.95;48.10;101162.02;1679116;83;21126;-81
2022/06/03 12:22:32;;;;;;;8.68;2.60;;;;;;;25.93;48.16;101175.72;1720674;82;21913;-82
2022/06/03 12:25:01;;;;;;;5.40;2.45;;;;;;;25.93;48.13;101167.36;1696798;83;21107;-83
2022/06/03 12:27:34;;;;;;;7.72;2.77;;;;;;;25.93;48.05;101162.36;1703383;82;21746;-82
2022/06/03 12:30:35;;;;;;;8.05;2.67;;;;;;;25.94;48.02;101163.99;1704891;83;21084;-81
2022/06/03 12:33:06;;;;;;;4.42;2.42;;;;;;;25.93;47.98;101151.81;1716292;83;21055;-82
2022/06/03 12:36:04;;;;;;;9.68;2.60;;;;;;;25.93;47.95;101153.99;1714611;82;21347;-81
2022/06/03 12:38:45;;;;;;;5.35;2.62;;;;;;;25.93;47.91;101150.42;1722317;82;21438;-80
2022/06/03 12:41:11;;;;;;;;;;;;;;;25.93;47.89;101151.81;1681375;83;21059;-80
2022/06/03 12:43:57;;;;;;;5.35;2.27;;;;;;;25.91;47.79;101139.02;1701793;82;20275;-81
2022/06/03 12:46:44;;;;;;;4.12;2.65;;;;;;;25.91;47.84;101144.60;1692711;84;21065;-82
2022/06/03 12:49:20;;;;;;;10.65;2.70;;;;;;;25.91;47.76;101136.23;1704379;83;21804;-82
2022/06/03 12:52:05;;;;;;;5.45;2.52;;;;;;;25.92;47.70;101142.63;1711531;82;21572;-79
2022/06/03 12:54:32;;;;;;;5.92;2.50;;;;;;;25.93;47.62;101128.33;1667667;84;21361;-81
2022/06/03 12:57:10;;;;;;;7.67;2.87;;;;;;;25.96;47.53;101131.59;1688119;83;21070;-82
2022/06/03 13:00:01;;;;;;;5.20;2.67;;;;;;;25.98;47.40;101138.44;1663207;83;21100;-80
2022/06/03 13:02:31;;;;;;;6.92;2.72;;;;;;;26.01;47.39;101123.83;1677024;83;22849;-82
2022/06/03 13:05:10;;;;;;;5.15;2.58;;;;;;;26.04;47.31;101123.70;1738628;80;21086;-82
2022/06/03 13:07:41;;;;;;;7.95;2.92;;;;;;;26.07;47.23;101117.42;1753628;81;21358;-81
2022/06/03 13:10:15;;;;;;;7.60;2.90;;;;;;;26.08;47.18;101124.64;1716531;81;21164;-82
2022/06/03 13:12:47;;;;;;;6.15;2.62;;;;;;;26.08;47.14;101125.45;1718195;81;21361;-81
2022/06/03 13:15:30;;;;;;;7.92;2.80;;;;;;;26.09;47.08;101132.67;1696932;83;21848;-81
2022/06/03 13:18:18;;;;;;;9.28;2.55;;;;;;;26.08;47.03;101119.06;1687978;84;21756;-82
2022/06/03 13:21:04;;;;;;;7.55;2.83;;;;;;;26.08;47.03;101129.64;1719417;83;21113;-84
2022/06/03 13:23:51;;;;;;;5.90;2.77;;;;;;;26.01;47.29;101111.86;1725640;81;21526;-82
2022/06/03 13:26:29;;;;;;;4.70;2.50;;;;;;;26.01;47.29;101111.86;1721499;81;21482;-82
2022/06/03 13:29:06;;;;;;;9.05;2.42;;;;;;;26.04;46.95;101125.10;1713392;81;22020;-83
2022/06/03 13:32:00;;;;;;;9.30;2.77;;;;;;;26.02;47.00;101115.67;1753070;81;21077;-83